sensor_id;sensor_type;location;lat;lon;timestamp;P1;durP1;ratioP1;P2;durP2;ratioP2
13560;SDS011;6852;51.686;5.314;2023-03-15T00:01:02;0.40;;;0.40;;
13560;SDS011;6852;51.686;5.314;2023-03-15T00:03:35;1.80;;;0.50;;
13560;SDS011;6852;51.686;5.314;2023-03-15T00:06:03;2.20;;;0.50;;
13560;SDS011;6852;51.686;5.314;2023-03-15T00:08:30;0.73;;;0.50;;
13560;SDS011;6852;51.686;5.314;2023-03-15T00:11:00;0.63;;;0.60;;
13560;SDS011;6852;51.686;5.314;2023-03-15T00:13:27;0.50;;;0.30;;
13560;SDS011;6852;51.686;5.314;2023-03-15T00:15:56;3.57;;;0.53;;
13560;SDS011;6852;51.686;5.314;2023-03-15T00:18:26;0.47;;;0.47;;
13560;SDS011;6852;51.686;5.314;2023-03-15T00:20:53;0.40;;;0.40;;
13560;SDS011;6852;51.686;5.314;2023-03-15T00:23:20;1.63;;;0.50;;
13560;SDS011;6852;51.686;5.314;2023-03-15T00:25:47;2.00;;;0.80;;
13560;SDS011;6852;51.686;5.314;2023-03-15T00:28:15;0.93;;;0.60;;
13560;SDS011;6852;51.686;5.314;2023-03-15T00:30:42;0.60;;;0.60;;
13560;SDS011;6852;51.686;5.314;2023-03-15T00:33:10;2.47;;;1.07;;
13560;SDS011;6852;51.686;5.314;2023-03-15T00:35:42;0.80;;;0.80;;
13560;SDS011;6852;51.686;5.314;2023-03-15T00:38:11;1.63;;;1.20;;
13560;SDS011;6852;51.686;5.314;2023-03-15T00:40:39;3.53;;;1.30;;
13560;SDS011;6852;51.686;5.314;2023-03-15T00:43:06;3.83;;;1.40;;
13560;SDS011;6852;51.686;5.314;2023-03-15T00:45:32;2.17;;;1.50;;
13560;SDS011;6852;51.686;5.314;2023-03-15T00:47:59;1.60;;;1.50;;
13560;SDS011;6852;51.686;5.314;2023-03-15T00:50:26;2.23;;;1.60;;
13560;SDS011;6852;51.686;5.314;2023-03-15T00:52:53;2.60;;;1.70;;
13560;SDS011;6852;51.686;5.314;2023-03-15T00:55:20;3.37;;;1.53;;
13560;SDS011;6852;51.686;5.314;2023-03-15T00:57:47;2.53;;;1.90;;
13560;SDS011;6852;51.686;5.314;2023-03-15T01:00:16;3.30;;;1.83;;
13560;SDS011;6852;51.686;5.314;2023-03-15T01:02:50;4.57;;;1.87;;
13560;SDS011;6852;51.686;5.314;2023-03-15T01:05:18;3.10;;;1.77;;
13560;SDS011;6852;51.686;5.314;2023-03-15T01:07:46;3.60;;;2.33;;
13560;SDS011;6852;51.686;5.314;2023-03-15T01:10:14;4.10;;;2.17;;
13560;SDS011;6852;51.686;5.314;2023-03-15T01:12:41;3.53;;;2.20;;
13560;SDS011;6852;51.686;5.314;2023-03-15T01:15:10;2.43;;;1.73;;
13560;SDS011;6852;51.686;5.314;2023-03-15T01:17:39;2.97;;;2.03;;
13560;SDS011;6852;51.686;5.314;2023-03-15T01:20:07;1.77;;;1.50;;
13560;SDS011;6852;51.686;5.314;2023-03-15T01:22:34;2.63;;;1.43;;
13560;SDS011;6852;51.686;5.314;2023-03-15T01:25:01;1.50;;;1.37;;
13560;SDS011;6852;51.686;5.314;2023-03-15T01:27:28;1.57;;;1.20;;
13560;SDS011;6852;51.686;5.314;2023-03-15T01:29:55;1.80;;;1.23;;
13560;SDS011;6852;51.686;5.314;2023-03-15T01:32:22;1.63;;;1.50;;
13560;SDS011;6852;51.686;5.314;2023-03-15T01:34:49;1.50;;;1.37;;
13560;SDS011;6852;51.686;5.314;2023-03-15T01:37:16;1.30;;;1.20;;
13560;SDS011;6852;51.686;5.314;2023-03-15T01:39:43;1.70;;;1.53;;
13560;SDS011;6852;51.686;5.314;2023-03-15T01:42:10;1.57;;;1.40;;
13560;SDS011;6852;51.686;5.314;2023-03-15T01:44:53;1.90;;;1.40;;
13560;SDS011;6852;51.686;5.314;2023-03-15T01:47:22;1.77;;;1.33;;
13560;SDS011;6852;51.686;5.314;2023-03-15T01:50:02;2.63;;;1.50;;
13560;SDS011;6852;51.686;5.314;2023-03-15T01:52:33;1.83;;;1.20;;
13560;SDS011;6852;51.686;5.314;2023-03-15T01:55:07;1.30;;;1.20;;
13560;SDS011;6852;51.686;5.314;2023-03-15T01:57:51;1.90;;;1.50;;
13560;SDS011;6852;51.686;5.314;2023-03-15T02:00:21;1.73;;;1.23;;
13560;SDS011;6852;51.686;5.314;2023-03-15T02:02:58;1.60;;;1.50;;
13560;SDS011;6852;51.686;5.314;2023-03-15T02:05:40;3.17;;;1.60;;
13560;SDS011;6852;51.686;5.314;2023-03-15T02:08:11;2.40;;;1.43;;
13560;SDS011;6852;51.686;5.314;2023-03-15T02:10:43;1.77;;;1.43;;
13560;SDS011;6852;51.686;5.314;2023-03-15T02:13:14;1.97;;;1.77;;
13560;SDS011;6852;51.686;5.314;2023-03-15T02:15:44;1.50;;;1.40;;
13560;SDS011;6852;51.686;5.314;2023-03-15T02:18:14;1.40;;;1.30;;
13560;SDS011;6852;51.686;5.314;2023-03-15T02:20:48;2.60;;;1.60;;
13560;SDS011;6852;51.686;5.314;2023-03-15T02:23:35;3.67;;;1.80;;
13560;SDS011;6852;51.686;5.314;2023-03-15T02:28:32;1.40;;;1.30;;
13560;SDS011;6852;51.686;5.314;2023-03-15T02:31:00;1.70;;;1.60;;
13560;SDS011;6852;51.686;5.314;2023-03-15T02:36:08;3.33;;;2.07;;
13560;SDS011;6852;51.686;5.314;2023-03-15T02:38:40;3.40;;;1.57;;
13560;SDS011;6852;51.686;5.314;2023-03-15T02:41:07;4.00;;;2.07;;
13560;SDS011;6852;51.686;5.314;2023-03-15T02:43:34;2.43;;;2.10;;
13560;SDS011;6852;51.686;5.314;2023-03-15T02:46:02;2.27;;;1.90;;
13560;SDS011;6852;51.686;5.314;2023-03-15T02:48:30;3.10;;;2.07;;
13560;SDS011;6852;51.686;5.314;2023-03-15T02:50:59;2.90;;;2.23;;
13560;SDS011;6852;51.686;5.314;2023-03-15T02:53:28;3.37;;;2.73;;
13560;SDS011;6852;51.686;5.314;2023-03-15T02:55:56;5.17;;;2.37;;
13560;SDS011;6852;51.686;5.314;2023-03-15T02:58:23;3.20;;;2.43;;
13560;SDS011;6852;51.686;5.314;2023-03-15T03:00:51;3.30;;;2.50;;
13560;SDS011;6852;51.686;5.314;2023-03-15T03:03:19;2.83;;;2.40;;
13560;SDS011;6852;51.686;5.314;2023-03-15T03:05:46;4.37;;;2.53;;
13560;SDS011;6852;51.686;5.314;2023-03-15T03:08:13;2.97;;;2.53;;
13560;SDS011;6852;51.686;5.314;2023-03-15T03:10:41;5.43;;;3.17;;
13560;SDS011;6852;51.686;5.314;2023-03-15T03:13:08;5.07;;;2.73;;
13560;SDS011;6852;51.686;5.314;2023-03-15T03:15:35;2.80;;;2.50;;
13560;SDS011;6852;51.686;5.314;2023-03-15T03:18:02;5.20;;;2.90;;
13560;SDS011;6852;51.686;5.314;2023-03-15T03:20:29;4.00;;;2.70;;
13560;SDS011;6852;51.686;5.314;2023-03-15T03:22:56;2.93;;;2.73;;
13560;SDS011;6852;51.686;5.314;2023-03-15T03:25:23;3.83;;;3.13;;
13560;SDS011;6852;51.686;5.314;2023-03-15T03:31:16;5.60;;;3.27;;
13560;SDS011;6852;51.686;5.314;2023-03-15T03:33:47;5.07;;;3.47;;
13560;SDS011;6852;51.686;5.314;2023-03-15T03:36:14;4.03;;;3.37;;
13560;SDS011;6852;51.686;5.314;2023-03-15T03:38:42;4.50;;;3.30;;
13560;SDS011;6852;51.686;5.314;2023-03-15T03:41:11;3.90;;;3.00;;
13560;SDS011;6852;51.686;5.314;2023-03-15T03:43:39;6.83;;;3.27;;
13560;SDS011;6852;51.686;5.314;2023-03-15T03:46:06;5.07;;;3.43;;
13560;SDS011;6852;51.686;5.314;2023-03-15T03:48:33;6.00;;;3.43;;
13560;SDS011;6852;51.686;5.314;2023-03-15T03:51:00;6.30;;;3.43;;
13560;SDS011;6852;51.686;5.314;2023-03-15T03:53:27;5.40;;;3.10;;
13560;SDS011;6852;51.686;5.314;2023-03-15T03:55:54;3.03;;;2.77;;
13560;SDS011;6852;51.686;5.314;2023-03-15T03:58:21;5.77;;;3.27;;
13560;SDS011;6852;51.686;5.314;2023-03-15T04:00:48;5.10;;;3.53;;
13560;SDS011;6852;51.686;5.314;2023-03-15T04:03:19;6.10;;;3.10;;
13560;SDS011;6852;51.686;5.314;2023-03-15T04:05:52;4.97;;;3.33;;
13560;SDS011;6852;51.686;5.314;2023-03-15T04:08:21;5.60;;;3.30;;
13560;SDS011;6852;51.686;5.314;2023-03-15T04:10:52;5.13;;;2.57;;
13560;SDS011;6852;51.686;5.314;2023-03-15T04:13:20;5.33;;;2.40;;
13560;SDS011;6852;51.686;5.314;2023-03-15T04:15:49;4.50;;;2.50;;
13560;SDS011;6852;51.686;5.314;2023-03-15T04:18:16;4.30;;;2.80;;
13560;SDS011;6852;51.686;5.314;2023-03-15T04:20:43;4.83;;;2.90;;
13560;SDS011;6852;51.686;5.314;2023-03-15T04:23:13;4.67;;;2.50;;
13560;SDS011;6852;51.686;5.314;2023-03-15T04:25:50;3.20;;;2.90;;
13560;SDS011;6852;51.686;5.314;2023-03-15T04:28:18;5.83;;;2.90;;
13560;SDS011;6852;51.686;5.314;2023-03-15T04:30:46;5.03;;;2.80;;
13560;SDS011;6852;51.686;5.314;2023-03-15T04:33:14;4.80;;;3.03;;
13560;SDS011;6852;51.686;5.314;2023-03-15T04:35:41;3.40;;;2.97;;
13560;SDS011;6852;51.686;5.314;2023-03-15T04:38:08;3.53;;;2.53;;
13560;SDS011;6852;51.686;5.314;2023-03-15T04:40:35;4.37;;;3.03;;
13560;SDS011;6852;51.686;5.314;2023-03-15T04:43:03;4.63;;;3.03;;
13560;SDS011;6852;51.686;5.314;2023-03-15T04:45:31;4.77;;;3.20;;
13560;SDS011;6852;51.686;5.314;2023-03-15T04:47:58;6.63;;;2.87;;
13560;SDS011;6852;51.686;5.314;2023-03-15T04:50:26;4.80;;;3.07;;
13560;SDS011;6852;51.686;5.314;2023-03-15T04:52:56;3.67;;;2.80;;
13560;SDS011;6852;51.686;5.314;2023-03-15T04:55:24;8.97;;;3.00;;
13560;SDS011;6852;51.686;5.314;2023-03-15T04:57:51;4.43;;;3.30;;
13560;SDS011;6852;51.686;5.314;2023-03-15T05:00:18;3.73;;;3.23;;
13560;SDS011;6852;51.686;5.314;2023-03-15T05:02:47;5.03;;;3.20;;
13560;SDS011;6852;51.686;5.314;2023-03-15T05:05:20;6.63;;;3.40;;
13560;SDS011;6852;51.686;5.314;2023-03-15T05:07:49;5.53;;;3.23;;
13560;SDS011;6852;51.686;5.314;2023-03-15T05:10:16;3.87;;;2.97;;
13560;SDS011;6852;51.686;5.314;2023-03-15T05:12:43;4.53;;;3.23;;
13560;SDS011;6852;51.686;5.314;2023-03-15T05:15:10;5.20;;;3.30;;
13560;SDS011;6852;51.686;5.314;2023-03-15T05:17:37;6.77;;;3.43;;
13560;SDS011;6852;51.686;5.314;2023-03-15T05:20:04;5.17;;;3.53;;
13560;SDS011;6852;51.686;5.314;2023-03-15T05:22:37;6.20;;;3.60;;
13560;SDS011;6852;51.686;5.314;2023-03-15T05:25:04;8.30;;;3.77;;
13560;SDS011;6852;51.686;5.314;2023-03-15T05:27:32;7.93;;;3.97;;
13560;SDS011;6852;51.686;5.314;2023-03-15T05:29:59;3.67;;;3.30;;
13560;SDS011;6852;51.686;5.314;2023-03-15T05:32:28;4.40;;;3.33;;
13560;SDS011;6852;51.686;5.314;2023-03-15T05:35:00;6.83;;;3.63;;
13560;SDS011;6852;51.686;5.314;2023-03-15T05:37:27;5.57;;;3.63;;
13560;SDS011;6852;51.686;5.314;2023-03-15T05:39:54;5.00;;;4.10;;
13560;SDS011;6852;51.686;5.314;2023-03-15T05:42:21;4.60;;;3.40;;
13560;SDS011;6852;51.686;5.314;2023-03-15T05:44:54;6.20;;;3.47;;
13560;SDS011;6852;51.686;5.314;2023-03-15T05:47:22;6.13;;;3.80;;
13560;SDS011;6852;51.686;5.314;2023-03-15T05:49:49;5.97;;;3.77;;
13560;SDS011;6852;51.686;5.314;2023-03-15T05:52:16;6.77;;;3.67;;
13560;SDS011;6852;51.686;5.314;2023-03-15T05:54:42;7.13;;;4.37;;
13560;SDS011;6852;51.686;5.314;2023-03-15T05:57:10;7.00;;;4.60;;
13560;SDS011;6852;51.686;5.314;2023-03-15T05:59:36;5.17;;;4.53;;
13560;SDS011;6852;51.686;5.314;2023-03-15T06:02:03;5.77;;;3.93;;
13560;SDS011;6852;51.686;5.314;2023-03-15T06:04:30;8.30;;;4.30;;
13560;SDS011;6852;51.686;5.314;2023-03-15T06:06:57;10.77;;;4.87;;
13560;SDS011;6852;51.686;5.314;2023-03-15T06:09:24;8.00;;;4.67;;
13560;SDS011;6852;51.686;5.314;2023-03-15T06:11:51;8.23;;;4.53;;
13560;SDS011;6852;51.686;5.314;2023-03-15T06:14:18;7.47;;;4.80;;
13560;SDS011;6852;51.686;5.314;2023-03-15T06:16:45;7.90;;;4.47;;
13560;SDS011;6852;51.686;5.314;2023-03-15T06:19:12;7.87;;;4.53;;
13560;SDS011;6852;51.686;5.314;2023-03-15T06:21:39;5.90;;;4.53;;
13560;SDS011;6852;51.686;5.314;2023-03-15T06:24:06;7.87;;;5.00;;
13560;SDS011;6852;51.686;5.314;2023-03-15T06:26:33;6.50;;;4.83;;
13560;SDS011;6852;51.686;5.314;2023-03-15T06:29:00;7.27;;;5.17;;
13560;SDS011;6852;51.686;5.314;2023-03-15T06:31:27;6.60;;;4.43;;
13560;SDS011;6852;51.686;5.314;2023-03-15T06:33:54;6.33;;;4.30;;
13560;SDS011;6852;51.686;5.314;2023-03-15T06:36:20;8.20;;;4.30;;
13560;SDS011;6852;51.686;5.314;2023-03-15T06:38:49;7.23;;;5.17;;
13560;SDS011;6852;51.686;5.314;2023-03-15T06:41:19;8.63;;;5.00;;
13560;SDS011;6852;51.686;5.314;2023-03-15T06:43:46;8.00;;;4.67;;
13560;SDS011;6852;51.686;5.314;2023-03-15T06:46:13;8.37;;;4.60;;
13560;SDS011;6852;51.686;5.314;2023-03-15T06:48:40;7.33;;;4.97;;
13560;SDS011;6852;51.686;5.314;2023-03-15T06:51:07;6.83;;;3.90;;
13560;SDS011;6852;51.686;5.314;2023-03-15T06:53:34;10.43;;;4.77;;
13560;SDS011;6852;51.686;5.314;2023-03-15T06:56:01;6.23;;;4.33;;
13560;SDS011;6852;51.686;5.314;2023-03-15T06:58:28;8.30;;;4.83;;
13560;SDS011;6852;51.686;5.314;2023-03-15T07:00:55;10.63;;;4.50;;
13560;SDS011;6852;51.686;5.314;2023-03-15T07:03:22;5.60;;;4.10;;
13560;SDS011;6852;51.686;5.314;2023-03-15T07:05:49;6.77;;;4.20;;
13560;SDS011;6852;51.686;5.314;2023-03-15T07:08:19;6.53;;;4.07;;
13560;SDS011;6852;51.686;5.314;2023-03-15T07:10:47;6.27;;;4.70;;
13560;SDS011;6852;51.686;5.314;2023-03-15T07:13:16;6.47;;;4.47;;
13560;SDS011;6852;51.686;5.314;2023-03-15T07:15:44;5.73;;;4.20;;
13560;SDS011;6852;51.686;5.314;2023-03-15T07:18:11;5.90;;;4.47;;
13560;SDS011;6852;51.686;5.314;2023-03-15T07:20:37;8.07;;;4.90;;
13560;SDS011;6852;51.686;5.314;2023-03-15T07:23:04;7.07;;;4.67;;
13560;SDS011;6852;51.686;5.314;2023-03-15T07:25:31;7.23;;;5.13;;
13560;SDS011;6852;51.686;5.314;2023-03-15T07:28:10;10.27;;;4.80;;
13560;SDS011;6852;51.686;5.314;2023-03-15T07:30:37;6.80;;;4.60;;
13560;SDS011;6852;51.686;5.314;2023-03-15T07:33:03;6.53;;;4.97;;
13560;SDS011;6852;51.686;5.314;2023-03-15T07:35:30;6.80;;;3.67;;
13560;SDS011;6852;51.686;5.314;2023-03-15T07:37:57;6.97;;;3.87;;
13560;SDS011;6852;51.686;5.314;2023-03-15T07:40:24;5.93;;;3.97;;
13560;SDS011;6852;51.686;5.314;2023-03-15T07:42:51;6.80;;;3.27;;
13560;SDS011;6852;51.686;5.314;2023-03-15T07:45:18;8.43;;;4.50;;
13560;SDS011;6852;51.686;5.314;2023-03-15T07:47:45;5.43;;;3.57;;
13560;SDS011;6852;51.686;5.314;2023-03-15T07:50:12;6.43;;;3.87;;
13560;SDS011;6852;51.686;5.314;2023-03-15T07:52:42;6.47;;;2.40;;
13560;SDS011;6852;51.686;5.314;2023-03-15T07:55:09;4.13;;;2.70;;
13560;SDS011;6852;51.686;5.314;2023-03-15T07:57:36;4.63;;;3.37;;
13560;SDS011;6852;51.686;5.314;2023-03-15T08:00:03;3.23;;;2.57;;
13560;SDS011;6852;51.686;5.314;2023-03-15T08:02:31;3.90;;;2.53;;
13560;SDS011;6852;51.686;5.314;2023-03-15T08:04:58;4.23;;;2.30;;
13560;SDS011;6852;51.686;5.314;2023-03-15T08:07:24;4.37;;;1.93;;
13560;SDS011;6852;51.686;5.314;2023-03-15T08:09:51;5.93;;;2.57;;
13560;SDS011;6852;51.686;5.314;2023-03-15T08:12:18;3.63;;;1.97;;
13560;SDS011;6852;51.686;5.314;2023-03-15T08:14:45;5.67;;;1.97;;
13560;SDS011;6852;51.686;5.314;2023-03-15T08:17:12;2.77;;;1.80;;
13560;SDS011;6852;51.686;5.314;2023-03-15T08:19:41;5.37;;;1.83;;
13560;SDS011;6852;51.686;5.314;2023-03-15T08:22:08;4.43;;;1.60;;
13560;SDS011;6852;51.686;5.314;2023-03-15T08:24:35;4.20;;;1.70;;
13560;SDS011;6852;51.686;5.314;2023-03-15T08:27:02;3.23;;;1.70;;
13560;SDS011;6852;51.686;5.314;2023-03-15T08:29:30;4.10;;;1.80;;
13560;SDS011;6852;51.686;5.314;2023-03-15T08:31:57;2.37;;;1.20;;
13560;SDS011;6852;51.686;5.314;2023-03-15T08:34:24;3.27;;;1.20;;
13560;SDS011;6852;51.686;5.314;2023-03-15T08:36:51;4.90;;;1.80;;
13560;SDS011;6852;51.686;5.314;2023-03-15T08:39:18;4.87;;;1.50;;
13560;SDS011;6852;51.686;5.314;2023-03-15T08:41:45;4.97;;;1.30;;
13560;SDS011;6852;51.686;5.314;2023-03-15T08:44:12;3.27;;;1.27;;
13560;SDS011;6852;51.686;5.314;2023-03-15T08:46:39;3.10;;;1.50;;
13560;SDS011;6852;51.686;5.314;2023-03-15T08:49:06;4.67;;;1.60;;
13560;SDS011;6852;51.686;5.314;2023-03-15T08:51:33;9.43;;;1.80;;
13560;SDS011;6852;51.686;5.314;2023-03-15T08:54:00;4.93;;;2.03;;
13560;SDS011;6852;51.686;5.314;2023-03-15T08:56:29;5.10;;;1.43;;
13560;SDS011;6852;51.686;5.314;2023-03-15T08:58:57;5.97;;;1.87;;
13560;SDS011;6852;51.686;5.314;2023-03-15T09:01:24;2.40;;;1.60;;
13560;SDS011;6852;51.686;5.314;2023-03-15T09:03:51;7.07;;;1.33;;
13560;SDS011;6852;51.686;5.314;2023-03-15T09:06:18;3.53;;;1.27;;
13560;SDS011;6852;51.686;5.314;2023-03-15T09:08:45;3.30;;;1.30;;
13560;SDS011;6852;51.686;5.314;2023-03-15T09:11:11;4.37;;;1.00;;
13560;SDS011;6852;51.686;5.314;2023-03-15T09:13:39;5.50;;;1.67;;
13560;SDS011;6852;51.686;5.314;2023-03-15T09:16:05;4.57;;;1.30;;
13560;SDS011;6852;51.686;5.314;2023-03-15T09:18:33;1.93;;;1.17;;
13560;SDS011;6852;51.686;5.314;2023-03-15T09:20:59;4.90;;;1.73;;
13560;SDS011;6852;51.686;5.314;2023-03-15T09:23:26;3.53;;;1.47;;
13560;SDS011;6852;51.686;5.314;2023-03-15T09:25:53;5.00;;;1.30;;
13560;SDS011;6852;51.686;5.314;2023-03-15T09:28:20;6.17;;;2.00;;
13560;SDS011;6852;51.686;5.314;2023-03-15T09:30:47;2.33;;;1.03;;
13560;SDS011;6852;51.686;5.314;2023-03-15T09:33:14;5.60;;;1.40;;
13560;SDS011;6852;51.686;5.314;2023-03-15T09:35:41;6.73;;;1.67;;
13560;SDS011;6852;51.686;5.314;2023-03-15T09:38:08;3.33;;;1.40;;
13560;SDS011;6852;51.686;5.314;2023-03-15T09:40:39;1.63;;;1.07;;
13560;SDS011;6852;51.686;5.314;2023-03-15T09:45:47;4.33;;;1.50;;
13560;SDS011;6852;51.686;5.314;2023-03-15T09:54:39;4.20;;;1.40;;
13560;SDS011;6852;51.686;5.314;2023-03-15T09:57:14;3.77;;;1.20;;
13560;SDS011;6852;51.686;5.314;2023-03-15T09:59:48;4.00;;;1.57;;
13560;SDS011;6852;51.686;5.314;2023-03-15T10:02:24;5.43;;;1.20;;
13560;SDS011;6852;51.686;5.314;2023-03-15T10:04:58;5.17;;;1.10;;
13560;SDS011;6852;51.686;5.314;2023-03-15T10:07:31;7.40;;;1.00;;
13560;SDS011;6852;51.686;5.314;2023-03-15T10:09:58;3.80;;;0.90;;
13560;SDS011;6852;51.686;5.314;2023-03-15T10:12:29;3.47;;;1.07;;
13560;SDS011;6852;51.686;5.314;2023-03-15T10:15:22;2.87;;;1.80;;
13560;SDS011;6852;51.686;5.314;2023-03-15T10:23:58;5.07;;;1.27;;
13560;SDS011;6852;51.686;5.314;2023-03-15T10:26:30;5.63;;;1.17;;
13560;SDS011;6852;51.686;5.314;2023-03-15T10:29:02;11.37;;;1.30;;
13560;SDS011;6852;51.686;5.314;2023-03-15T10:31:36;1.93;;;0.77;;
13560;SDS011;6852;51.686;5.314;2023-03-15T10:34:10;3.97;;;0.80;;
13560;SDS011;6852;51.686;5.314;2023-03-15T10:36:42;4.20;;;1.33;;
13560;SDS011;6852;51.686;5.314;2023-03-15T10:39:12;8.77;;;1.33;;
13560;SDS011;6852;51.686;5.314;2023-03-15T10:44:25;7.50;;;1.23;;
13560;SDS011;6852;51.686;5.314;2023-03-15T10:47:00;2.53;;;1.00;;
13560;SDS011;6852;51.686;5.314;2023-03-15T10:49:48;3.27;;;1.30;;
13560;SDS011;6852;51.686;5.314;2023-03-15T10:52:33;1.63;;;0.80;;
13560;SDS011;6852;51.686;5.314;2023-03-15T10:55:29;7.53;;;1.47;;
13560;SDS011;6852;51.686;5.314;2023-03-15T10:58:11;4.20;;;1.23;;
13560;SDS011;6852;51.686;5.314;2023-03-15T11:00:43;5.50;;;0.97;;
13560;SDS011;6852;51.686;5.314;2023-03-15T11:03:20;2.33;;;0.97;;
13560;SDS011;6852;51.686;5.314;2023-03-15T11:05:49;3.63;;;0.53;;
13560;SDS011;6852;51.686;5.314;2023-03-15T11:08:25;2.53;;;0.80;;
13560;SDS011;6852;51.686;5.314;2023-03-15T11:11:02;6.93;;;1.53;;
13560;SDS011;6852;51.686;5.314;2023-03-15T11:13:30;4.67;;;1.03;;
13560;SDS011;6852;51.686;5.314;2023-03-15T11:16:06;4.23;;;0.80;;
13560;SDS011;6852;51.686;5.314;2023-03-15T11:18:47;3.80;;;1.27;;
13560;SDS011;6852;51.686;5.314;2023-03-15T11:21:25;3.17;;;1.13;;
13560;SDS011;6852;51.686;5.314;2023-03-15T11:24:00;5.90;;;0.93;;
13560;SDS011;6852;51.686;5.314;2023-03-15T11:26:33;2.30;;;0.63;;
13560;SDS011;6852;51.686;5.314;2023-03-15T11:29:04;2.83;;;0.80;;
13560;SDS011;6852;51.686;5.314;2023-03-15T11:31:31;2.33;;;0.60;;
13560;SDS011;6852;51.686;5.314;2023-03-15T11:34:08;2.57;;;1.10;;
13560;SDS011;6852;51.686;5.314;2023-03-15T11:36:41;3.93;;;0.73;;
13560;SDS011;6852;51.686;5.314;2023-03-15T11:39:13;4.10;;;0.90;;
13560;SDS011;6852;51.686;5.314;2023-03-15T11:41:46;3.63;;;1.00;;
13560;SDS011;6852;51.686;5.314;2023-03-15T11:47:25;5.63;;;1.90;;
13560;SDS011;6852;51.686;5.314;2023-03-15T11:49:49;3.70;;;1.20;;
13560;SDS011;6852;51.686;5.314;2023-03-15T11:52:18;4.70;;;0.83;;
13560;SDS011;6852;51.686;5.314;2023-03-15T11:54:48;5.10;;;1.23;;
13560;SDS011;6852;51.686;5.314;2023-03-15T12:03:23;5.07;;;1.03;;
13560;SDS011;6852;51.686;5.314;2023-03-15T12:05:51;3.03;;;1.00;;
13560;SDS011;6852;51.686;5.314;2023-03-15T12:11:07;4.47;;;0.80;;
13560;SDS011;6852;51.686;5.314;2023-03-15T12:16:28;3.27;;;0.73;;
13560;SDS011;6852;51.686;5.314;2023-03-15T12:19:16;1.50;;;0.63;;
13560;SDS011;6852;51.686;5.314;2023-03-15T12:21:48;2.60;;;0.60;;
13560;SDS011;6852;51.686;5.314;2023-03-15T12:24:23;3.83;;;1.10;;
13560;SDS011;6852;51.686;5.314;2023-03-15T12:27:00;2.10;;;0.90;;
13560;SDS011;6852;51.686;5.314;2023-03-15T12:29:30;2.07;;;0.70;;
13560;SDS011;6852;51.686;5.314;2023-03-15T12:36:59;1.40;;;0.87;;
13560;SDS011;6852;51.686;5.314;2023-03-15T12:42:10;3.30;;;0.70;;
13560;SDS011;6852;51.686;5.314;2023-03-15T12:53:21;2.03;;;0.67;;
13560;SDS011;6852;51.686;5.314;2023-03-15T12:58:48;1.80;;;1.00;;
13560;SDS011;6852;51.686;5.314;2023-03-15T13:01:19;1.47;;;0.60;;
13560;SDS011;6852;51.686;5.314;2023-03-15T13:03:54;3.87;;;0.60;;
13560;SDS011;6852;51.686;5.314;2023-03-15T13:19:18;1.90;;;0.50;;
13560;SDS011;6852;51.686;5.314;2023-03-15T13:27:47;3.00;;;0.73;;
13560;SDS011;6852;51.686;5.314;2023-03-15T13:30:32;1.03;;;0.60;;
13560;SDS011;6852;51.686;5.314;2023-03-15T13:35:44;2.30;;;0.93;;
13560;SDS011;6852;51.686;5.314;2023-03-15T13:38:23;2.53;;;0.60;;
13560;SDS011;6852;51.686;5.314;2023-03-15T13:40:58;1.43;;;0.53;;
13560;SDS011;6852;51.686;5.314;2023-03-15T13:43:34;2.17;;;0.63;;
13560;SDS011;6852;51.686;5.314;2023-03-15T13:46:03;3.17;;;1.17;;
13560;SDS011;6852;51.686;5.314;2023-03-15T13:48:34;2.77;;;0.90;;
13560;SDS011;6852;51.686;5.314;2023-03-15T13:53:38;3.03;;;0.73;;
13560;SDS011;6852;51.686;5.314;2023-03-15T13:56:16;1.73;;;0.70;;
13560;SDS011;6852;51.686;5.314;2023-03-15T13:58:45;3.50;;;0.80;;
13560;SDS011;6852;51.686;5.314;2023-03-15T14:01:15;4.13;;;0.60;;
13560;SDS011;6852;51.686;5.314;2023-03-15T14:03:43;1.53;;;0.60;;
13560;SDS011;6852;51.686;5.314;2023-03-15T14:06:19;2.50;;;1.07;;
13560;SDS011;6852;51.686;5.314;2023-03-15T14:08:50;1.57;;;0.60;;
13560;SDS011;6852;51.686;5.314;2023-03-15T14:13:53;0.77;;;0.47;;
13560;SDS011;6852;51.686;5.314;2023-03-15T14:16:42;0.70;;;0.50;;
13560;SDS011;6852;51.686;5.314;2023-03-15T14:19:29;1.63;;;0.63;;
13560;SDS011;6852;51.686;5.314;2023-03-15T14:22:00;3.87;;;0.80;;
13560;SDS011;6852;51.686;5.314;2023-03-15T14:24:33;1.50;;;0.63;;
13560;SDS011;6852;51.686;5.314;2023-03-15T14:27:06;3.20;;;0.93;;
13560;SDS011;6852;51.686;5.314;2023-03-15T14:29:38;1.50;;;0.63;;
13560;SDS011;6852;51.686;5.314;2023-03-15T14:32:32;2.20;;;0.70;;
13560;SDS011;6852;51.686;5.314;2023-03-15T14:35:22;3.17;;;0.70;;
13560;SDS011;6852;51.686;5.314;2023-03-15T14:37:59;1.60;;;0.60;;
13560;SDS011;6852;51.686;5.314;2023-03-15T14:40:30;2.90;;;0.90;;
13560;SDS011;6852;51.686;5.314;2023-03-15T14:43:01;2.33;;;0.80;;
13560;SDS011;6852;51.686;5.314;2023-03-15T14:45:30;1.03;;;0.67;;
13560;SDS011;6852;51.686;5.314;2023-03-15T14:48:03;0.87;;;0.70;;
13560;SDS011;6852;51.686;5.314;2023-03-15T14:50:52;1.43;;;0.70;;
13560;SDS011;6852;51.686;5.314;2023-03-15T14:53:21;3.33;;;0.90;;
13560;SDS011;6852;51.686;5.314;2023-03-15T14:55:49;1.03;;;0.70;;
13560;SDS011;6852;51.686;5.314;2023-03-15T14:58:19;1.00;;;0.60;;
13560;SDS011;6852;51.686;5.314;2023-03-15T15:00:48;2.10;;;1.03;;
13560;SDS011;6852;51.686;5.314;2023-03-15T15:03:34;1.00;;;0.67;;
13560;SDS011;6852;51.686;5.314;2023-03-15T15:06:07;1.50;;;0.80;;
13560;SDS011;6852;51.686;5.314;2023-03-15T15:08:36;2.60;;;0.97;;
13560;SDS011;6852;51.686;5.314;2023-03-15T15:11:05;1.67;;;0.77;;
13560;SDS011;6852;51.686;5.314;2023-03-15T15:13:36;2.60;;;0.60;;
13560;SDS011;6852;51.686;5.314;2023-03-15T15:16:04;1.77;;;1.50;;
13560;SDS011;6852;51.686;5.314;2023-03-15T15:18:32;3.17;;;0.70;;
13560;SDS011;6852;51.686;5.314;2023-03-15T15:21:01;1.23;;;0.87;;
13560;SDS011;6852;51.686;5.314;2023-03-15T15:23:38;0.97;;;0.60;;
13560;SDS011;6852;51.686;5.314;2023-03-15T15:26:23;1.97;;;1.07;;
13560;SDS011;6852;51.686;5.314;2023-03-15T15:28:51;1.57;;;0.70;;
13560;SDS011;6852;51.686;5.314;2023-03-15T15:31:19;1.93;;;1.20;;
13560;SDS011;6852;51.686;5.314;2023-03-15T15:33:51;1.07;;;0.63;;
13560;SDS011;6852;51.686;5.314;2023-03-15T15:36:26;2.00;;;0.80;;
13560;SDS011;6852;51.686;5.314;2023-03-15T15:38:57;1.30;;;0.97;;
13560;SDS011;6852;51.686;5.314;2023-03-15T15:41:31;3.67;;;1.10;;
13560;SDS011;6852;51.686;5.314;2023-03-15T15:43:58;1.13;;;0.90;;
13560;SDS011;6852;51.686;5.314;2023-03-15T15:46:27;2.27;;;1.10;;
13560;SDS011;6852;51.686;5.314;2023-03-15T15:48:54;1.17;;;1.00;;
13560;SDS011;6852;51.686;5.314;2023-03-15T15:51:31;1.43;;;1.30;;
13560;SDS011;6852;51.686;5.314;2023-03-15T15:54:04;1.27;;;0.90;;
13560;SDS011;6852;51.686;5.314;2023-03-15T15:56:41;1.53;;;0.80;;
13560;SDS011;6852;51.686;5.314;2023-03-15T15:59:17;1.63;;;1.10;;
13560;SDS011;6852;51.686;5.314;2023-03-15T16:01:45;1.30;;;0.83;;
13560;SDS011;6852;51.686;5.314;2023-03-15T16:04:26;2.33;;;1.07;;
13560;SDS011;6852;51.686;5.314;2023-03-15T16:06:57;2.60;;;1.10;;
13560;SDS011;6852;51.686;5.314;2023-03-15T16:09:27;2.27;;;1.20;;
13560;SDS011;6852;51.686;5.314;2023-03-15T16:11:56;1.80;;;1.30;;
13560;SDS011;6852;51.686;5.314;2023-03-15T16:14:23;2.27;;;1.50;;
13560;SDS011;6852;51.686;5.314;2023-03-15T16:16:50;2.53;;;1.20;;
13560;SDS011;6852;51.686;5.314;2023-03-15T16:19:17;2.23;;;1.13;;
13560;SDS011;6852;51.686;5.314;2023-03-15T16:21:44;5.10;;;1.20;;
13560;SDS011;6852;51.686;5.314;2023-03-15T16:26:44;1.63;;;1.30;;
13560;SDS011;6852;51.686;5.314;2023-03-15T16:29:16;1.40;;;1.20;;
13560;SDS011;6852;51.686;5.314;2023-03-15T16:31:48;4.73;;;1.40;;
13560;SDS011;6852;51.686;5.314;2023-03-15T16:34:21;2.10;;;1.30;;
13560;SDS011;6852;51.686;5.314;2023-03-15T16:36:51;2.33;;;1.47;;
13560;SDS011;6852;51.686;5.314;2023-03-15T16:39:21;2.53;;;1.13;;
13560;SDS011;6852;51.686;5.314;2023-03-15T16:41:48;1.83;;;1.40;;
13560;SDS011;6852;51.686;5.314;2023-03-15T16:44:15;4.27;;;1.60;;
13560;SDS011;6852;51.686;5.314;2023-03-15T16:46:44;4.27;;;1.20;;